Terminal Aerodrome Forecast
Issued by NWS

Home | Current Version | Previous Version | Graphics & Text | Print | Product List | Glossary On
Versions: 1 2 3 4 5 6 7 8 9 10 11 12 13 14 15 16 17
000
FTUS42 KMHX 271003 AAB
TAFPGV
TAF AMD
KPGV 271003Z 2710/2806 00000KT 1SM BR OVC007
      TEMPO 2711/2713 4SM BR SKC
     FM271300 35006KT P6SM SCT250
     FM280100 01003KT P6SM BKN020
      AMD LTD TO CLD VIS AND WIND=

USA.gov is the U.S. government's official web portal to all federal, state and local government web resources and services.